sensor_id;sensor_type;location;lat;lon;timestamp;pressure;altitude;pressure_sealevel;temperature;humidity
7532;BME280;3807;49.030;8.714;2022-07-29T00:00:34;99039.69;;;27.62;39.85
7532;BME280;3807;49.030;8.714;2022-07-29T00:02:59;99048.34;;;27.62;39.89
7532;BME280;3807;49.030;8.714;2022-07-29T00:05:25;99038.50;;;27.64;39.98
7532;BME280;3807;49.030;8.714;2022-07-29T00:07:50;99041.66;;;27.60;39.96
7532;BME280;3807;49.030;8.714;2022-07-29T00:10:15;99044.25;;;27.60;39.95
7532;BME280;3807;49.030;8.714;2022-07-29T00:12:41;99037.06;;;27.53;40.10
7532;BME280;3807;49.030;8.714;2022-07-29T00:15:07;99034.63;;;27.52;40.21
7532;BME280;3807;49.030;8.714;2022-07-29T00:17:32;99028.59;;;27.51;40.32
7532;BME280;3807;49.030;8.714;2022-07-29T00:19:59;99026.47;;;27.39;40.63
7532;BME280;3807;49.030;8.714;2022-07-29T00:22:24;99023.53;;;27.42;40.61
7532;BME280;3807;49.030;8.714;2022-07-29T00:24:50;99028.91;;;27.40;40.62
7532;BME280;3807;49.030;8.714;2022-07-29T00:27:16;99020.91;;;27.34;40.82
7532;BME280;3807;49.030;8.714;2022-07-29T00:29:42;99018.63;;;27.39;40.72
7532;BME280;3807;49.030;8.714;2022-07-29T00:32:07;99022.56;;;27.26;40.96
7532;BME280;3807;49.030;8.714;2022-07-29T00:34:32;99020.13;;;27.25;41.13
7532;BME280;3807;49.030;8.714;2022-07-29T00:37:16;99016.53;;;27.26;41.08
7532;BME280;3807;49.030;8.714;2022-07-29T00:39:42;99014.41;;;27.21;41.12
7532;BME280;3807;49.030;8.714;2022-07-29T00:42:08;99023.06;;;27.22;41.25
7532;BME280;3807;49.030;8.714;2022-07-29T00:44:41;99017.16;;;27.12;41.48
7532;BME280;3807;49.030;8.714;2022-07-29T00:47:08;99016.06;;;27.14;41.51
7532;BME280;3807;49.030;8.714;2022-07-29T00:49:34;99009.03;;;27.06;41.62
7532;BME280;3807;49.030;8.714;2022-07-29T00:52:04;99007.72;;;27.02;41.90
7532;BME280;3807;49.030;8.714;2022-07-29T00:54:29;99000.19;;;26.99;41.88
7532;BME280;3807;49.030;8.714;2022-07-29T00:56:57;98999.38;;;26.99;41.91
7532;BME280;3807;49.030;8.714;2022-07-29T00:59:23;98988.59;;;26.94;42.00
7532;BME280;3807;49.030;8.714;2022-07-29T01:01:48;98998.38;;;26.92;42.19
7532;BME280;3807;49.030;8.714;2022-07-29T01:04:13;98993.34;;;26.90;42.07
7532;BME280;3807;49.030;8.714;2022-07-29T01:06:39;98999.88;;;26.86;42.28
7532;BME280;3807;49.030;8.714;2022-07-29T01:09:05;98996.78;;;26.82;42.38
7532;BME280;3807;49.030;8.714;2022-07-29T01:11:31;98992.34;;;26.83;42.36
7532;BME280;3807;49.030;8.714;2022-07-29T01:13:56;98993.81;;;26.77;42.46
7532;BME280;3807;49.030;8.714;2022-07-29T01:16:35;99006.25;;;26.75;42.57
7532;BME280;3807;49.030;8.714;2022-07-29T01:19:16;99005.75;;;26.72;42.63
7532;BME280;3807;49.030;8.714;2022-07-29T01:21:53;99014.41;;;26.72;42.66
7532;BME280;3807;49.030;8.714;2022-07-29T01:29:54;99004.41;;;26.51;43.20
7532;BME280;3807;49.030;8.714;2022-07-29T01:32:23;99001.63;;;26.53;43.17
7532;BME280;3807;49.030;8.714;2022-07-29T01:35:05;99003.44;;;26.52;43.18
7532;BME280;3807;49.030;8.714;2022-07-29T01:37:38;99008.63;;;26.44;43.39
7532;BME280;3807;49.030;8.714;2022-07-29T01:40:10;99007.53;;;26.47;43.29
7532;BME280;3807;49.030;8.714;2022-07-29T01:42:42;99007.16;;;26.42;43.50
7532;BME280;3807;49.030;8.714;2022-07-29T01:45:18;99008.44;;;26.46;43.53
7532;BME280;3807;49.030;8.714;2022-07-29T01:48:02;99002.25;;;26.38;43.53
7532;BME280;3807;49.030;8.714;2022-07-29T01:50:38;98999.78;;;26.37;43.62
7532;BME280;3807;49.030;8.714;2022-07-29T01:53:08;98996.66;;;26.25;43.95
7532;BME280;3807;49.030;8.714;2022-07-29T01:55:37;98996.50;;;26.27;43.94
7532;BME280;3807;49.030;8.714;2022-07-29T01:58:05;98998.12;;;26.28;43.90
7532;BME280;3807;49.030;8.714;2022-07-29T02:00:32;99004.97;;;26.21;44.18
7532;BME280;3807;49.030;8.714;2022-07-29T02:03:00;98999.25;;;26.25;44.07
7532;BME280;3807;49.030;8.714;2022-07-29T02:05:28;99005.66;;;26.23;44.30
7532;BME280;3807;49.030;8.714;2022-07-29T02:07:55;99008.09;;;26.24;44.23
7532;BME280;3807;49.030;8.714;2022-07-29T02:10:26;99007.41;;;26.14;44.52
7532;BME280;3807;49.030;8.714;2022-07-29T02:12:54;99006.44;;;26.15;44.39
7532;BME280;3807;49.030;8.714;2022-07-29T02:15:22;99000.88;;;26.10;44.65
7532;BME280;3807;49.030;8.714;2022-07-29T02:17:55;99004.28;;;26.10;44.76
7532;BME280;3807;49.030;8.714;2022-07-29T02:20:22;99005.78;;;26.13;44.70
7532;BME280;3807;49.030;8.714;2022-07-29T02:22:49;99002.50;;;26.11;44.71
7532;BME280;3807;49.030;8.714;2022-07-29T02:25:16;99008.03;;;26.08;44.85
7532;BME280;3807;49.030;8.714;2022-07-29T02:27:43;99001.66;;;26.02;45.07
7532;BME280;3807;49.030;8.714;2022-07-29T02:30:10;99000.34;;;25.98;45.14
7532;BME280;3807;49.030;8.714;2022-07-29T02:32:39;98996.44;;;26.02;45.09
7532;BME280;3807;49.030;8.714;2022-07-29T02:35:06;98994.63;;;25.95;45.21
7532;BME280;3807;49.030;8.714;2022-07-29T02:37:32;99000.50;;;25.97;45.18
7532;BME280;3807;49.030;8.714;2022-07-29T02:39:58;98995.44;;;25.95;45.35
7532;BME280;3807;49.030;8.714;2022-07-29T02:42:26;98992.63;;;25.88;45.56
7532;BME280;3807;49.030;8.714;2022-07-29T02:44:52;98992.78;;;25.87;45.55
7532;BME280;3807;49.030;8.714;2022-07-29T02:47:23;98994.06;;;25.83;45.73
7532;BME280;3807;49.030;8.714;2022-07-29T02:49:56;98999.16;;;25.84;45.57
7532;BME280;3807;49.030;8.714;2022-07-29T02:52:41;98995.06;;;25.82;45.78
7532;BME280;3807;49.030;8.714;2022-07-29T02:58:03;98996.03;;;25.81;45.87
7532;BME280;3807;49.030;8.714;2022-07-29T03:00:35;98992.91;;;25.77;45.86
7532;BME280;3807;49.030;8.714;2022-07-29T03:03:04;99001.03;;;25.74;45.96
7532;BME280;3807;49.030;8.714;2022-07-29T03:05:32;98998.25;;;25.76;45.92
7532;BME280;3807;49.030;8.714;2022-07-29T03:08:01;98989.59;;;25.67;46.09
7532;BME280;3807;49.030;8.714;2022-07-29T03:10:28;99000.53;;;25.71;46.07
7532;BME280;3807;49.030;8.714;2022-07-29T03:12:55;98995.75;;;25.66;46.22
7532;BME280;3807;49.030;8.714;2022-07-29T03:15:21;98992.97;;;25.59;46.37
7532;BME280;3807;49.030;8.714;2022-07-29T03:17:47;98989.31;;;25.52;46.44
7532;BME280;3807;49.030;8.714;2022-07-29T03:20:13;98993.59;;;25.53;46.53
7532;BME280;3807;49.030;8.714;2022-07-29T03:22:40;98987.69;;;25.51;46.61
7532;BME280;3807;49.030;8.714;2022-07-29T03:25:13;98986.22;;;25.49;46.65
7532;BME280;3807;49.030;8.714;2022-07-29T03:27:38;98999.72;;;25.44;46.78
7532;BME280;3807;49.030;8.714;2022-07-29T03:30:06;98993.38;;;25.47;46.73
7532;BME280;3807;49.030;8.714;2022-07-29T03:32:31;98989.81;;;25.48;46.69
7532;BME280;3807;49.030;8.714;2022-07-29T03:34:57;98990.47;;;25.50;46.68
7532;BME280;3807;49.030;8.714;2022-07-29T03:37:22;98997.13;;;25.44;46.77
7532;BME280;3807;49.030;8.714;2022-07-29T03:39:49;98995.78;;;25.40;46.89
7532;BME280;3807;49.030;8.714;2022-07-29T03:42:16;98988.28;;;25.37;46.97
7532;BME280;3807;49.030;8.714;2022-07-29T03:44:45;98997.59;;;25.39;47.08
7532;BME280;3807;49.030;8.714;2022-07-29T03:47:13;98992.97;;;25.33;47.05
7532;BME280;3807;49.030;8.714;2022-07-29T03:49:40;98993.97;;;25.32;47.09
7532;BME280;3807;49.030;8.714;2022-07-29T03:52:06;98997.22;;;25.34;46.97
7532;BME280;3807;49.030;8.714;2022-07-29T03:54:31;98992.97;;;25.33;46.92
7532;BME280;3807;49.030;8.714;2022-07-29T03:56:59;98993.06;;;25.24;47.21
7532;BME280;3807;49.030;8.714;2022-07-29T03:59:26;98994.87;;;25.23;47.30
7532;BME280;3807;49.030;8.714;2022-07-29T04:01:52;98993.53;;;25.19;47.37
7532;BME280;3807;49.030;8.714;2022-07-29T04:04:18;98994.66;;;25.16;47.37
7532;BME280;3807;49.030;8.714;2022-07-29T04:06:45;98999.06;;;25.16;47.36
7532;BME280;3807;49.030;8.714;2022-07-29T04:09:11;99005.38;;;25.13;47.48
7532;BME280;3807;49.030;8.714;2022-07-29T04:11:39;99005.38;;;25.13;47.47
7532;BME280;3807;49.030;8.714;2022-07-29T04:14:04;99008.81;;;25.14;47.49
7532;BME280;3807;49.030;8.714;2022-07-29T04:16:30;99005.81;;;25.09;47.70
7532;BME280;3807;49.030;8.714;2022-07-29T04:18:55;99003.97;;;25.01;47.86
7532;BME280;3807;49.030;8.714;2022-07-29T04:21:21;99010.69;;;25.04;47.74
7532;BME280;3807;49.030;8.714;2022-07-29T04:23:46;99008.38;;;25.01;47.84
7532;BME280;3807;49.030;8.714;2022-07-29T04:26:18;99016.50;;;24.98;47.84
7532;BME280;3807;49.030;8.714;2022-07-29T04:28:43;99015.81;;;24.95;47.90
7532;BME280;3807;49.030;8.714;2022-07-29T04:31:10;99008.97;;;24.94;47.89
7532;BME280;3807;49.030;8.714;2022-07-29T04:33:35;99005.69;;;24.92;47.92
7532;BME280;3807;49.030;8.714;2022-07-29T04:36:00;99007.47;;;24.92;48.13
7532;BME280;3807;49.030;8.714;2022-07-29T04:38:26;99010.09;;;24.92;47.99
7532;BME280;3807;49.030;8.714;2022-07-29T04:40:51;99014.31;;;24.93;48.05
7532;BME280;3807;49.030;8.714;2022-07-29T04:43:17;99011.34;;;24.88;48.08
7532;BME280;3807;49.030;8.714;2022-07-29T04:45:42;99019.38;;;24.94;47.92
7532;BME280;3807;49.030;8.714;2022-07-29T04:48:07;99014.25;;;24.85;48.25
7532;BME280;3807;49.030;8.714;2022-07-29T04:50:33;99014.94;;;24.87;48.10
7532;BME280;3807;49.030;8.714;2022-07-29T04:52:58;99020.44;;;24.84;48.15
7532;BME280;3807;49.030;8.714;2022-07-29T04:55:24;99026.63;;;24.83;48.24
7532;BME280;3807;49.030;8.714;2022-07-29T04:57:50;99023.00;;;24.76;48.34
7532;BME280;3807;49.030;8.714;2022-07-29T05:00:16;99022.12;;;24.75;48.39
7532;BME280;3807;49.030;8.714;2022-07-29T05:02:41;99027.22;;;24.77;48.44
7532;BME280;3807;49.030;8.714;2022-07-29T05:05:07;99025.59;;;24.76;48.38
7532;BME280;3807;49.030;8.714;2022-07-29T05:07:33;99031.91;;;24.73;48.40
7532;BME280;3807;49.030;8.714;2022-07-29T05:09:58;99035.16;;;24.75;48.46
7532;BME280;3807;49.030;8.714;2022-07-29T05:12:25;99035.16;;;24.75;48.51
7532;BME280;3807;49.030;8.714;2022-07-29T05:14:50;99039.56;;;24.75;48.40
7532;BME280;3807;49.030;8.714;2022-07-29T05:17:16;99036.22;;;24.64;48.61
7532;BME280;3807;49.030;8.714;2022-07-29T05:19:41;99036.97;;;24.75;48.47
7532;BME280;3807;49.030;8.714;2022-07-29T05:22:07;99035.63;;;24.70;48.43
7532;BME280;3807;49.030;8.714;2022-07-29T05:24:32;99037.53;;;24.68;48.52
7532;BME280;3807;49.030;8.714;2022-07-29T05:26:57;99036.72;;;24.68;48.58
7532;BME280;3807;49.030;8.714;2022-07-29T05:29:23;99049.03;;;24.76;48.36
7532;BME280;3807;49.030;8.714;2022-07-29T05:31:48;99047.66;;;24.71;48.33
7532;BME280;3807;49.030;8.714;2022-07-29T05:34:13;99051.78;;;24.74;48.29
7532;BME280;3807;49.030;8.714;2022-07-29T05:36:39;99048.13;;;24.67;48.45
7532;BME280;3807;49.030;8.714;2022-07-29T05:39:04;99053.09;;;24.60;48.54
7532;BME280;3807;49.030;8.714;2022-07-29T05:41:33;99048.41;;;24.64;48.64
7532;BME280;3807;49.030;8.714;2022-07-29T05:43:58;99052.50;;;24.66;48.45
7532;BME280;3807;49.030;8.714;2022-07-29T05:46:24;99057.56;;;24.68;48.33
7532;BME280;3807;49.030;8.714;2022-07-29T05:48:49;99067.84;;;24.69;48.38
7532;BME280;3807;49.030;8.714;2022-07-29T05:51:14;99062.56;;;24.79;48.06
7532;BME280;3807;49.030;8.714;2022-07-29T05:53:40;99060.41;;;24.75;48.19
7532;BME280;3807;49.030;8.714;2022-07-29T05:56:05;99066.34;;;24.67;48.22
7532;BME280;3807;49.030;8.714;2022-07-29T05:58:31;99062.25;;;24.64;48.46
7532;BME280;3807;49.030;8.714;2022-07-29T06:00:57;99067.91;;;24.78;47.94
7532;BME280;3807;49.030;8.714;2022-07-29T06:03:25;99068.12;;;24.66;48.12
7532;BME280;3807;49.030;8.714;2022-07-29T06:05:51;99058.75;;;24.74;48.04
7532;BME280;3807;49.030;8.714;2022-07-29T06:08:16;99065.09;;;24.71;48.02
7532;BME280;3807;49.030;8.714;2022-07-29T06:10:42;99062.19;;;24.74;48.09
7532;BME280;3807;49.030;8.714;2022-07-29T06:13:08;99068.72;;;24.78;47.86
7532;BME280;3807;49.030;8.714;2022-07-29T06:15:33;99071.84;;;24.82;47.82
7532;BME280;3807;49.030;8.714;2022-07-29T06:17:59;99079.37;;;24.85;47.81
7532;BME280;3807;49.030;8.714;2022-07-29T06:20:24;99080.28;;;24.93;47.67
7532;BME280;3807;49.030;8.714;2022-07-29T06:22:50;99080.47;;;24.82;47.74
7532;BME280;3807;49.030;8.714;2022-07-29T06:25:15;99086.09;;;24.87;47.61
7532;BME280;3807;49.030;8.714;2022-07-29T06:27:41;99081.47;;;24.81;47.71
7532;BME280;3807;49.030;8.714;2022-07-29T06:30:06;99087.50;;;24.82;47.70
7532;BME280;3807;49.030;8.714;2022-07-29T06:32:33;99084.88;;;24.82;47.71
7532;BME280;3807;49.030;8.714;2022-07-29T06:34:59;99084.66;;;24.75;47.94
7532;BME280;3807;49.030;8.714;2022-07-29T06:37:24;99084.66;;;24.75;48.01
7532;BME280;3807;49.030;8.714;2022-07-29T06:39:49;99086.97;;;24.78;48.34
7532;BME280;3807;49.030;8.714;2022-07-29T06:42:35;99095.00;;;24.85;48.46
7532;BME280;3807;49.030;8.714;2022-07-29T06:45:01;99087.69;;;24.70;48.53
7532;BME280;3807;49.030;8.714;2022-07-29T06:47:26;99082.66;;;24.69;48.34
7532;BME280;3807;49.030;8.714;2022-07-29T06:49:51;99094.47;;;24.81;47.94
7532;BME280;3807;49.030;8.714;2022-07-29T06:52:16;99095.53;;;24.88;47.87
7532;BME280;3807;49.030;8.714;2022-07-29T06:54:42;99097.31;;;24.88;48.01
7532;BME280;3807;49.030;8.714;2022-07-29T06:57:13;99098.81;;;24.90;47.78
7532;BME280;3807;49.030;8.714;2022-07-29T06:59:38;99102.53;;;24.88;47.91
7532;BME280;3807;49.030;8.714;2022-07-29T07:02:03;99100.44;;;24.91;47.87
7532;BME280;3807;49.030;8.714;2022-07-29T07:04:29;99097.31;;;24.88;48.01
7532;BME280;3807;49.030;8.714;2022-07-29T07:06:54;99103.88;;;24.92;48.10
7532;BME280;3807;49.030;8.714;2022-07-29T07:09:20;99102.37;;;24.89;48.11
7532;BME280;3807;49.030;8.714;2022-07-29T07:11:46;99100.97;;;24.95;48.14
7532;BME280;3807;49.030;8.714;2022-07-29T07:14:11;99104.31;;;25.05;47.85
7532;BME280;3807;49.030;8.714;2022-07-29T07:16:36;99105.28;;;25.04;47.73
7532;BME280;3807;49.030;8.714;2022-07-29T07:19:02;99106.56;;;25.00;48.00
7532;BME280;3807;49.030;8.714;2022-07-29T07:21:28;99106.25;;;25.03;47.88
7532;BME280;3807;49.030;8.714;2022-07-29T07:23:53;99108.56;;;25.06;47.95
7532;BME280;3807;49.030;8.714;2022-07-29T07:26:18;99107.19;;;25.12;47.77
7532;BME280;3807;49.030;8.714;2022-07-29T07:28:44;99107.03;;;25.13;47.66
7532;BME280;3807;49.030;8.714;2022-07-29T07:31:10;99111.66;;;25.19;47.51
7532;BME280;3807;49.030;8.714;2022-07-29T07:33:35;99106.66;;;25.26;47.18
7532;BME280;3807;49.030;8.714;2022-07-29T07:36:00;99107.47;;;25.27;47.20
7532;BME280;3807;49.030;8.714;2022-07-29T07:38:26;99105.66;;;25.27;47.25
7532;BME280;3807;49.030;8.714;2022-07-29T07:40:51;99114.00;;;25.31;47.12
7532;BME280;3807;49.030;8.714;2022-07-29T07:43:17;99115.88;;;25.21;47.38
7532;BME280;3807;49.030;8.714;2022-07-29T07:45:42;99112.31;;;25.22;47.49
7532;BME280;3807;49.030;8.714;2022-07-29T07:48:08;99116.91;;;25.28;47.23
7532;BME280;3807;49.030;8.714;2022-07-29T07:50:35;99114.94;;;25.22;47.33
7532;BME280;3807;49.030;8.714;2022-07-29T07:53:01;99115.44;;;25.25;47.18
7532;BME280;3807;49.030;8.714;2022-07-29T07:55:27;99118.41;;;25.30;47.18
7532;BME280;3807;49.030;8.714;2022-07-29T07:57:55;99115.03;;;25.38;46.87
7532;BME280;3807;49.030;8.714;2022-07-29T08:00:21;99116.31;;;25.34;46.81
7532;BME280;3807;49.030;8.714;2022-07-29T08:02:47;99119.31;;;25.39;46.65
7532;BME280;3807;49.030;8.714;2022-07-29T08:05:13;99115.44;;;25.43;46.53
7532;BME280;3807;49.030;8.714;2022-07-29T08:07:43;99119.31;;;25.65;46.10
7532;BME280;3807;49.030;8.714;2022-07-29T08:10:09;99119.59;;;25.80;45.91
7532;BME280;3807;49.030;8.714;2022-07-29T08:12:34;99120.00;;;25.93;46.10
7532;BME280;3807;49.030;8.714;2022-07-29T08:15:00;99109.78;;;26.00;45.89
7532;BME280;3807;49.030;8.714;2022-07-29T08:17:25;99115.03;;;26.08;46.13
7532;BME280;3807;49.030;8.714;2022-07-29T08:19:51;99115.81;;;26.00;46.02
7532;BME280;3807;49.030;8.714;2022-07-29T08:22:17;99123.59;;;25.92;45.50
7532;BME280;3807;49.030;8.714;2022-07-29T08:24:42;99127.84;;;25.93;45.96
7532;BME280;3807;49.030;8.714;2022-07-29T08:27:09;99128.59;;;26.11;45.41
7532;BME280;3807;49.030;8.714;2022-07-29T08:29:35;99132.41;;;25.91;45.75
7532;BME280;3807;49.030;8.714;2022-07-29T08:32:00;99128.88;;;26.00;45.67
7532;BME280;3807;49.030;8.714;2022-07-29T08:34:25;99136.28;;;26.13;45.57
7532;BME280;3807;49.030;8.714;2022-07-29T08:36:51;99131.87;;;26.13;45.74
7532;BME280;3807;49.030;8.714;2022-07-29T08:39:16;99133.38;;;26.16;45.80
7532;BME280;3807;49.030;8.714;2022-07-29T08:41:42;99140.41;;;26.24;45.94
7532;BME280;3807;49.030;8.714;2022-07-29T08:44:08;99140.91;;;26.27;45.88
7532;BME280;3807;49.030;8.714;2022-07-29T08:46:37;99133.38;;;26.50;45.55
7532;BME280;3807;49.030;8.714;2022-07-29T08:49:03;99136.00;;;26.58;45.48
7532;BME280;3807;49.030;8.714;2022-07-29T08:51:30;99146.47;;;26.58;45.40
7532;BME280;3807;49.030;8.714;2022-07-29T08:53:56;99135.69;;;26.62;45.32
7532;BME280;3807;49.030;8.714;2022-07-29T08:56:22;99136.56;;;26.78;44.80
7532;BME280;3807;49.030;8.714;2022-07-29T08:58:48;99138.06;;;26.89;44.63
7532;BME280;3807;49.030;8.714;2022-07-29T09:01:17;99138.03;;;26.81;44.87
7532;BME280;3807;49.030;8.714;2022-07-29T09:03:46;99141.81;;;26.95;44.69
7532;BME280;3807;49.030;8.714;2022-07-29T09:06:14;99135.62;;;27.04;44.34
7532;BME280;3807;49.030;8.714;2022-07-29T09:08:42;99139.22;;;27.03;44.44
7532;BME280;3807;49.030;8.714;2022-07-29T09:11:07;99130.56;;;27.11;44.29
7532;BME280;3807;49.030;8.714;2022-07-29T09:13:33;99132.19;;;27.12;44.09
7532;BME280;3807;49.030;8.714;2022-07-29T09:15:59;99144.16;;;27.22;44.08
7532;BME280;3807;49.030;8.714;2022-07-29T09:21:01;99139.78;;;27.31;43.46
7532;BME280;3807;49.030;8.714;2022-07-29T09:24:13;99144.59;;;26.85;44.77
7532;BME280;3807;49.030;8.714;2022-07-29T09:26:44;99144.31;;;27.13;43.87
7532;BME280;3807;49.030;8.714;2022-07-29T09:29:15;99130.91;;;27.16;43.27
7532;BME280;3807;49.030;8.714;2022-07-29T09:31:43;99134.22;;;27.34;43.38
7532;BME280;3807;49.030;8.714;2022-07-29T09:34:10;99130.44;;;27.45;42.95
7532;BME280;3807;49.030;8.714;2022-07-29T09:36:45;99131.44;;;27.36;43.32
7532;BME280;3807;49.030;8.714;2022-07-29T09:39:11;99126.03;;;27.62;42.71
7532;BME280;3807;49.030;8.714;2022-07-29T09:42:06;99127.16;;;27.67;42.55
7532;BME280;3807;49.030;8.714;2022-07-29T09:44:47;99119.81;;;27.79;42.18
7532;BME280;3807;49.030;8.714;2022-07-29T09:47:14;99120.94;;;27.85;42.09
7532;BME280;3807;49.030;8.714;2022-07-29T09:49:59;99122.41;;;27.87;41.48
7532;BME280;3807;49.030;8.714;2022-07-29T09:52:28;99114.72;;;27.77;41.98
7532;BME280;3807;49.030;8.714;2022-07-29T09:55:07;99122.56;;;27.94;41.56
7532;BME280;3807;49.030;8.714;2022-07-29T09:57:33;99120.28;;;27.91;40.64
7532;BME280;3807;49.030;8.714;2022-07-29T10:00:01;99126.63;;;28.05;40.28
7532;BME280;3807;49.030;8.714;2022-07-29T10:02:34;99130.72;;;27.99;41.02
7532;BME280;3807;49.030;8.714;2022-07-29T10:05:01;99127.75;;;28.02;40.96
7532;BME280;3807;49.030;8.714;2022-07-29T10:07:52;99127.53;;;28.20;40.35
7532;BME280;3807;49.030;8.714;2022-07-29T10:10:20;99120.38;;;28.06;40.93
7532;BME280;3807;49.030;8.714;2022-07-29T10:13:00;99120.53;;;28.12;40.30
7532;BME280;3807;49.030;8.714;2022-07-29T10:15:28;99130.16;;;28.28;40.40
7532;BME280;3807;49.030;8.714;2022-07-29T10:17:55;99115.66;;;28.48;40.07
7532;BME280;3807;49.030;8.714;2022-07-29T10:20:22;99115.44;;;28.58;39.61
7532;BME280;3807;49.030;8.714;2022-07-29T10:22:49;99111.84;;;28.59;39.81
7532;BME280;3807;49.030;8.714;2022-07-29T10:25:16;99122.50;;;28.58;39.07
7532;BME280;3807;49.030;8.714;2022-07-29T10:27:43;99113.47;;;28.60;39.66
7532;BME280;3807;49.030;8.714;2022-07-29T10:30:09;99112.88;;;28.81;39.41
7532;BME280;3807;49.030;8.714;2022-07-29T10:38:42;99100.59;;;29.28;38.59
7532;BME280;3807;49.030;8.714;2022-07-29T10:46:25;99104.22;;;29.27;38.20
7532;BME280;3807;49.030;8.714;2022-07-29T10:49:11;99104.78;;;29.52;38.11
7532;BME280;3807;49.030;8.714;2022-07-29T10:57:20;99089.84;;;29.90;37.28
7532;BME280;3807;49.030;8.714;2022-07-29T11:05:01;99091.06;;;30.38;36.60
7532;BME280;3807;49.030;8.714;2022-07-29T11:07:28;99095.44;;;30.31;36.73
7532;BME280;3807;49.030;8.714;2022-07-29T11:15:05;99097.72;;;30.92;35.68
7532;BME280;3807;49.030;8.714;2022-07-29T11:20:46;99091.41;;;31.08;35.40
7532;BME280;3807;49.030;8.714;2022-07-29T11:23:25;99082.34;;;31.17;35.21
7532;BME280;3807;49.030;8.714;2022-07-29T11:28:37;99079.50;;;31.34;35.41
7532;BME280;3807;49.030;8.714;2022-07-29T11:31:05;99088.44;;;31.39;35.51
7532;BME280;3807;49.030;8.714;2022-07-29T11:33:33;99075.88;;;31.69;34.40
7532;BME280;3807;49.030;8.714;2022-07-29T11:38:34;99068.78;;;31.98;34.35
7532;BME280;3807;49.030;8.714;2022-07-29T11:41:25;99077.50;;;31.98;33.94
7532;BME280;3807;49.030;8.714;2022-07-29T11:43:56;99075.72;;;32.12;34.11
7532;BME280;3807;49.030;8.714;2022-07-29T11:49:19;99079.63;;;32.23;33.76
7532;BME280;3807;49.030;8.714;2022-07-29T11:51:50;99079.84;;;32.35;33.10
7532;BME280;3807;49.030;8.714;2022-07-29T11:54:17;99083.19;;;32.63;32.13
7532;BME280;3807;49.030;8.714;2022-07-29T11:56:47;99073.47;;;32.70;32.60
7532;BME280;3807;49.030;8.714;2022-07-29T11:59:13;99080.41;;;32.78;32.29
7532;BME280;3807;49.030;8.714;2022-07-29T12:01:51;99080.25;;;33.00;32.89
7532;BME280;3807;49.030;8.714;2022-07-29T12:04:17;99073.16;;;33.07;32.36
7532;BME280;3807;49.030;8.714;2022-07-29T12:06:42;99078.44;;;33.00;32.36
7532;BME280;3807;49.030;8.714;2022-07-29T12:09:08;99075.97;;;33.12;32.29
7532;BME280;3807;49.030;8.714;2022-07-29T12:11:34;99080.44;;;33.25;32.41
7532;BME280;3807;49.030;8.714;2022-07-29T12:13:59;99068.06;;;33.18;32.51
7532;BME280;3807;49.030;8.714;2022-07-29T12:16:34;99076.59;;;33.34;31.91
7532;BME280;3807;49.030;8.714;2022-07-29T12:19:01;99073.13;;;33.40;32.00
7532;BME280;3807;49.030;8.714;2022-07-29T12:21:28;99066.66;;;33.49;32.00
7532;BME280;3807;49.030;8.714;2022-07-29T12:23:55;99071.72;;;33.44;31.98
7532;BME280;3807;49.030;8.714;2022-07-29T12:26:20;99071.53;;;33.06;31.21
7532;BME280;3807;49.030;8.714;2022-07-29T12:28:46;99066.44;;;33.11;31.43
7532;BME280;3807;49.030;8.714;2022-07-29T12:31:15;99077.41;;;33.41;31.29
7532;BME280;3807;49.030;8.714;2022-07-29T12:33:41;99076.00;;;33.52;31.70
7532;BME280;3807;49.030;8.714;2022-07-29T12:36:07;99079.81;;;33.69;31.71
7532;BME280;3807;49.030;8.714;2022-07-29T12:38:34;99072.31;;;33.53;30.60
7532;BME280;3807;49.030;8.714;2022-07-29T12:41:00;99074.34;;;33.57;31.21
7532;BME280;3807;49.030;8.714;2022-07-29T12:43:25;99079.22;;;33.60;30.89
7532;BME280;3807;49.030;8.714;2022-07-29T12:45:53;99074.13;;;33.65;31.65
7532;BME280;3807;49.030;8.714;2022-07-29T12:48:41;99067.19;;;33.78;30.90
7532;BME280;3807;49.030;8.714;2022-07-29T12:51:07;99074.84;;;34.06;29.94
7532;BME280;3807;49.030;8.714;2022-07-29T12:53:34;99076.88;;;33.97;30.53
7532;BME280;3807;49.030;8.714;2022-07-29T12:56:00;99076.28;;;33.95;31.16
7532;BME280;3807;49.030;8.714;2022-07-29T13:01:18;99073.19;;;34.11;30.48
7532;BME280;3807;49.030;8.714;2022-07-29T13:03:51;99070.28;;;33.61;30.45
7532;BME280;3807;49.030;8.714;2022-07-29T13:09:06;99074.47;;;33.89;30.75
7532;BME280;3807;49.030;8.714;2022-07-29T13:11:38;99082.19;;;34.04;30.59
7532;BME280;3807;49.030;8.714;2022-07-29T13:14:05;99077.94;;;33.83;30.05
7532;BME280;3807;49.030;8.714;2022-07-29T13:16:30;99084.03;;;33.90;30.87
7532;BME280;3807;49.030;8.714;2022-07-29T13:19:10;99086.69;;;33.83;30.82
7532;BME280;3807;49.030;8.714;2022-07-29T13:21:37;99088.78;;;33.61;31.00
7532;BME280;3807;49.030;8.714;2022-07-29T13:24:05;99092.53;;;33.92;29.95
7532;BME280;3807;49.030;8.714;2022-07-29T13:26:31;99090.91;;;33.98;30.86
7532;BME280;3807;49.030;8.714;2022-07-29T13:28:57;99092.84;;;34.29;29.88
7532;BME280;3807;49.030;8.714;2022-07-29T13:31:22;99098.19;;;34.16;30.50
7532;BME280;3807;49.030;8.714;2022-07-29T13:33:48;99094.81;;;34.40;30.05
7532;BME280;3807;49.030;8.714;2022-07-29T13:36:13;99092.91;;;34.16;28.86
7532;BME280;3807;49.030;8.714;2022-07-29T13:38:39;99093.03;;;33.62;29.12
7532;BME280;3807;49.030;8.714;2022-07-29T13:41:04;99092.78;;;33.84;29.15
7532;BME280;3807;49.030;8.714;2022-07-29T13:43:30;99091.34;;;33.88;30.07
7532;BME280;3807;49.030;8.714;2022-07-29T13:45:55;99090.53;;;33.81;30.46
7532;BME280;3807;49.030;8.714;2022-07-29T13:48:21;99099.44;;;34.06;29.16
7532;BME280;3807;49.030;8.714;2022-07-29T13:50:46;99092.47;;;34.19;29.17
7532;BME280;3807;49.030;8.714;2022-07-29T13:53:13;99090.97;;;34.36;29.11
7532;BME280;3807;49.030;8.714;2022-07-29T13:55:38;99084.75;;;34.17;29.31
7532;BME280;3807;49.030;8.714;2022-07-29T13:58:03;99078.50;;;34.50;28.86
7532;BME280;3807;49.030;8.714;2022-07-29T14:00:29;99077.09;;;34.02;28.18
7532;BME280;3807;49.030;8.714;2022-07-29T14:02:55;99083.44;;;34.40;28.87
7532;BME280;3807;49.030;8.714;2022-07-29T14:05:20;99074.88;;;34.37;29.04
7532;BME280;3807;49.030;8.714;2022-07-29T14:07:45;99078.56;;;34.36;28.58
7532;BME280;3807;49.030;8.714;2022-07-29T14:10:11;99074.66;;;34.01;29.21
7532;BME280;3807;49.030;8.714;2022-07-29T14:12:36;99078.41;;;34.31;29.21
7532;BME280;3807;49.030;8.714;2022-07-29T14:15:03;99071.37;;;33.99;28.08
7532;BME280;3807;49.030;8.714;2022-07-29T14:17:28;99080.53;;;33.96;27.60
7532;BME280;3807;49.030;8.714;2022-07-29T14:19:53;99073.16;;;34.18;28.91